Burbank, Utah
Current Conditions -  °F | °C
As of 2:49 PM on Wednesday 17 Dec 2014 (Local Time) from KMLF Reporting Station
Overcast Overcast  
Wind Chill: 35°   Ceiling: 6500
Heat Index: 43°   Visibility: 10mi
Dew Point: 32°   Wind: 15mph
Humidity: 66%   Direction: 190°S
Pressure: 29.96"   Gusts: NA
Location:  38.3622°N, 113.404°W
Report Text: KMLF 172149Z AUTO 19013KT 10SM SCT019 SCT025 OVC065 06/00 A2996 RMK AO2 TSNO
Loading
Personal Weather Stations






























Interactive Weather Map New forecast layout! Learn more

10-Day Weather Forecast

Advertisements
Track Severe Weather on mobile